Time;durP1;ratioP1;P1;durP2;ratioP2;P2;SDS_P1;SDS_P2;PMS_P1;PMS_P2;Temp;Humidity;BMP_temperature;BMP_pressure;BME280_temperature;BME280_humidity;BME280_pressure;Samples;Min_cycle;Max_cycle;Signal;HPM_P1;HPM_P2
2022/12/10 00:01:32;;;;;;;235.90;68.97;;;1.10;99.90;;;-0.26;100.00;96108.44;5095036;28;20467;-76
2022/12/10 00:03:59;;;;;;;211.48;64.25;;;1.10;99.90;;;-0.26;100.00;96106.66;5079351;28;20409;-76
2022/12/10 00:06:29;;;;;;;211.68;62.83;;;1.10;99.90;;;-0.25;100.00;96107.44;5078813;28;20458;-77
2022/12/10 00:08:55;;;;;;;222.98;65.03;;;1.10;99.90;;;-0.26;100.00;96106.66;5078129;28;20403;-76
2022/12/10 00:11:23;;;;;;;186.13;60.38;;;1.10;99.90;;;-0.23;100.00;96110.63;5084202;28;20394;-76
2022/12/10 00:13:51;;;;;;;236.75;68.32;;;1.10;99.90;;;-0.24;100.00;96109.84;5078441;28;20431;-76
2022/12/10 00:16:19;;;;;;;199.95;64.07;;;1.10;99.90;;;-0.24;100.00;96115.03;5077970;28;20399;-76
2022/12/10 00:18:46;;;;;;;215.77;64.18;;;1.10;99.90;;;-0.24;100.00;96116.84;5079274;28;20902;-77
2022/12/10 00:21:15;;;;;;;205.77;64.15;;;1.10;99.90;;;-0.24;100.00;96122.84;5078098;28;20415;-76
2022/12/10 00:23:42;;;;;;;239.60;67.55;;;1.10;99.90;;;-0.24;100.00;96120.25;5077165;28;20876;-77
2022/12/10 00:26:11;;;;;;;227.50;67.55;;;1.10;99.90;;;-0.23;100.00;96126.25;5078800;28;20459;-76
2022/12/10 00:28:39;;;;;;;222.73;67.53;;;1.10;99.90;;;-0.24;100.00;96124.66;5079997;28;20398;-76
2022/12/10 00:31:07;;;;;;;220.88;67.20;;;1.10;99.90;;;-0.24;100.00;96116.84;5077019;28;20409;-77
2022/12/10 00:33:33;;;;;;;207.00;65.05;;;1.10;99.90;;;-0.24;100.00;96115.03;5077224;28;20396;-75
2022/12/10 00:36:04;;;;;;;220.80;65.47;;;1.10;99.90;;;-0.23;100.00;96108.03;5079573;28;20767;-76
2022/12/10 00:38:30;;;;;;;216.73;65.72;;;1.10;99.90;;;-0.23;100.00;96110.63;5077812;28;20392;-75
2022/12/10 00:40:56;;;;;;;237.50;71.22;;;1.10;99.90;;;-0.25;100.00;96105.66;5077681;28;20962;-76
2022/12/10 00:43:22;;;;;;;180.02;60.05;;;1.10;99.90;;;-0.21;100.00;96112.00;5078605;28;20398;-76
2022/12/10 00:45:49;;;;;;;186.20;62.75;;;1.10;99.90;;;-0.19;100.00;96112.59;5079097;28;20403;-76
2022/12/10 00:48:15;;;;;;;226.50;69.10;;;1.10;99.90;;;-0.21;100.00;96108.59;5077787;28;20506;-76
2022/12/10 00:50:41;;;;;;;201.80;64.80;;;1.10;99.90;;;-0.22;100.00;96112.19;5094926;28;20531;-76
2022/12/10 00:53:07;;;;;;;211.48;64.53;;;1.10;99.90;;;-0.24;100.00;96102.03;5077556;28;20396;-77
2022/12/10 00:55:33;;;;;;;185.38;61.92;;;1.10;99.90;;;-0.23;100.00;96113.25;5080504;28;20897;-75
2022/12/10 00:57:59;;;;;;;185.00;60.80;;;1.10;99.90;;;-0.23;100.00;96119.25;5080673;28;20469;-76
2022/12/10 01:00:25;;;;;;;198.02;63.05;;;1.10;99.90;;;-0.23;100.00;96121.84;5082347;28;20392;-76
2022/12/10 01:02:54;;;;;;;193.37;63.10;;;1.10;99.90;;;-0.22;100.00;96118.19;5081562;28;20484;-76
2022/12/10 01:05:20;;;;;;;210.35;65.53;;;1.10;99.90;;;-0.23;100.00;96126.25;5081095;28;20410;-77
2022/12/10 01:07:45;;;;;;;215.68;65.00;;;1.10;99.90;;;-0.23;100.00;96128.84;5082396;28;20398;-77
2022/12/10 01:10:11;;;;;;;221.32;64.78;;;1.10;99.90;;;-0.25;100.00;96130.84;5081076;28;20925;-77
2022/12/10 01:12:37;;;;;;;202.50;62.97;;;1.10;99.90;;;-0.24;100.00;96140.25;5080828;28;20396;-77
2022/12/10 01:15:04;;;;;;;201.15;62.25;;;1.10;99.90;;;-0.25;100.00;96142.06;5081773;28;20402;-77
2022/12/10 01:17:30;;;;;;;225.48;65.60;;;1.10;99.90;;;-0.23;100.00;96140.03;5082252;28;20408;-77
2022/12/10 01:19:58;;;;;;;211.20;64.22;;;1.10;99.90;;;-0.23;100.00;96141.84;5080800;28;20783;-77
2022/12/10 01:22:24;;;;;;;218.98;64.65;;;1.10;99.90;;;-0.23;100.00;96144.44;5082193;28;20421;-77
2022/12/10 01:24:49;;;;;;;213.95;68.90;;;1.10;99.90;;;-0.24;100.00;96142.84;5079852;28;20414;-77
2022/12/10 01:27:15;;;;;;;204.43;64.63;;;1.10;99.90;;;-0.25;100.00;96151.66;5080795;28;20976;-77
2022/12/10 01:29:41;;;;;;;243.27;72.82;;;1.10;99.90;;;-0.24;100.00;96161.84;5080669;28;20439;-77
2022/12/10 01:32:07;;;;;;;231.73;70.47;;;1.10;99.90;;;-0.25;100.00;96162.84;5081755;28;20410;-77
2022/12/10 01:34:33;;;;;;;196.48;64.60;;;1.10;99.90;;;-0.26;100.00;96156.06;5081442;28;20403;-77
2022/12/10 01:37:01;;;;;;;223.33;67.37;;;1.10;99.90;;;-0.25;100.00;96169.84;5080508;28;20454;-77
2022/12/10 01:39:27;;;;;;;191.90;62.57;;;1.10;99.90;;;-0.23;100.00;96170.44;5081555;28;20428;-77
2022/12/10 01:41:55;;;;;;;214.45;67.55;;;1.10;99.90;;;-0.24;100.00;96172.25;5081760;28;20418;-77
2022/12/10 01:45:11;;;;;;;230.23;67.78;;;1.10;99.90;;;-0.23;100.00;96173.84;5079464;28;20400;-77
2022/12/10 01:47:37;;;;;;;192.87;62.97;;;1.10;99.90;;;-0.23;100.00;96171.25;5028427;28;20523;-77
2022/12/10 01:50:05;;;;;;;198.52;63.40;;;1.10;99.90;;;-0.22;100.00;96177.22;5063996;28;20429;-77
2022/12/10 01:52:33;;;;;;;206.07;65.13;;;1.10;99.90;;;-0.23;100.00;96173.84;5080213;28;20413;-77
2022/12/10 01:54:59;;;;;;;221.70;65.30;;;1.10;99.90;;;-0.23;100.00;96176.44;5078893;28;20457;-76
2022/12/10 01:57:28;;;;;;;229.75;67.55;;;1.10;99.90;;;-0.24;100.00;96172.25;5080599;28;20915;-76
2022/12/10 01:59:57;;;;;;;213.57;67.53;;;1.10;99.90;;;-0.23;100.00;96171.25;5080294;28;20883;-77
2022/12/10 02:02:42;;;;;;;206.77;66.25;;;1.10;99.90;;;-0.24;100.00;96171.44;5080004;28;20415;-77
2022/12/10 02:05:21;;;;;;;211.05;67.07;;;1.10;99.90;;;-0.24;100.00;96185.25;5081083;28;20400;-77
2022/12/10 02:08:02;;;;;;;239.27;70.57;;;1.10;99.90;;;-0.25;100.00;96173.25;5079903;28;20392;-77
2022/12/10 02:10:49;;;;;;;253.30;72.25;;;1.10;99.90;;;-0.25;100.00;96170.66;5080702;28;20431;-77
2022/12/10 02:13:30;;;;;;;217.60;65.90;;;1.10;99.90;;;-0.25;100.00;96169.84;5081117;28;20873;-76
2022/12/10 02:16:04;;;;;;;205.30;66.20;;;1.10;99.90;;;-0.24;100.00;96174.06;5081861;28;20402;-77
2022/12/10 02:18:35;;;;;;;209.43;63.35;;;1.10;99.90;;;-0.25;100.00;96175.84;5079719;28;20424;-77
2022/12/10 02:21:08;;;;;;;195.68;62.10;;;1.10;99.90;;;-0.26;100.00;96171.66;5078284;28;20413;-76
2022/12/10 02:23:39;;;;;;;283.20;74.07;;;1.10;99.90;;;-0.28;100.00;96168.47;5079221;28;20486;-77
2022/12/10 02:26:15;;;;;;;259.83;75.00;;;1.10;99.90;;;-0.33;100.00;96178.72;5080021;28;20403;-77
2022/12/10 02:28:48;;;;;;;211.15;66.63;;;1.00;99.90;;;-0.35;100.00;96162.53;5079484;28;20407;-77
2022/12/10 02:31:21;;;;;;;187.30;62.55;;;1.00;99.90;;;-0.34;100.00;96156.31;5079585;28;20405;-77
2022/12/10 02:33:51;;;;;;;193.85;61.72;;;1.00;99.90;;;-0.33;100.00;96167.50;5079333;28;20905;-77
2022/12/10 02:36:21;;;;;;;215.43;63.50;;;1.00;99.90;;;-0.33;100.00;96157.13;5079448;28;20407;-77
2022/12/10 02:38:49;;;;;;;223.85;68.63;;;1.00;99.90;;;-0.34;100.00;96152.91;5080574;28;20867;-76
2022/12/10 02:41:23;;;;;;;229.52;69.68;;;1.00;99.90;;;-0.35;100.00;96151.31;5081101;28;20407;-77
2022/12/10 02:43:54;;;;;;;181.02;61.50;;;1.00;99.90;;;-0.34;100.00;96147.72;5079281;28;20395;-77
2022/12/10 02:46:23;;;;;;;199.07;64.18;;;1.00;99.90;;;-0.33;100.00;96146.72;5079112;28;20444;-76
2022/12/10 02:48:50;;;;;;;186.68;63.15;;;1.00;99.90;;;-0.32;100.00;96137.91;5080262;28;20490;-77
2022/12/10 02:51:16;;;;;;;206.27;65.07;;;1.00;99.90;;;-0.34;100.00;96138.13;5080774;28;20523;-76
2022/12/10 02:53:43;;;;;;;211.45;65.28;;;1.00;99.90;;;-0.37;100.00;96138.53;5078230;28;20491;-76
2022/12/10 02:56:19;;;;;;;210.57;65.38;;;1.00;99.90;;;-0.37;100.00;96130.72;5095802;28;21169;-76
2022/12/10 02:58:59;;;;;;;195.27;63.58;;;1.00;99.90;;;-0.39;100.00;96124.97;5081726;28;20396;-76
2022/12/10 03:01:34;;;;;;;225.87;68.93;;;1.00;99.90;;;-0.43;100.00;96132.38;5079165;28;20420;-75
2022/12/10 03:04:06;;;;;;;180.10;60.88;;;0.90;99.90;;;-0.43;100.00;96132.38;5078002;28;20396;-76
2022/12/10 03:06:37;;;;;;;273.65;76.47;;;0.90;99.90;;;-0.44;100.00;96133.41;5079453;28;20894;-75
2022/12/10 03:09:07;;;;;;;255.60;80.35;;;0.90;99.90;;;-0.45;100.00;96136.19;5081350;28;20414;-77
2022/12/10 03:11:34;;;;;;;248.48;74.82;;;0.90;99.90;;;-0.50;100.00;96129.03;5081197;28;20396;-76
2022/12/10 03:14:04;;;;;;;214.93;69.05;;;0.90;99.90;;;-0.51;100.00;96124.84;5077923;28;20414;-76
2022/12/10 03:16:38;;;;;;;225.02;67.43;;;0.90;99.90;;;-0.50;100.00;96136.84;5079548;28;20485;-76
2022/12/10 03:19:11;;;;;;;217.00;66.97;;;0.90;99.90;;;-0.49;100.00;96141.03;5078590;28;20451;-76
2022/12/10 03:21:40;;;;;;;213.77;66.78;;;0.90;99.90;;;-0.47;100.00;96136.44;5078324;28;20423;-76
2022/12/10 03:24:07;;;;;;;231.13;67.35;;;0.90;99.90;;;-0.44;100.00;96137.78;5079117;28;20434;-76
2022/12/10 03:26:33;;;;;;;233.55;68.30;;;0.90;99.90;;;-0.44;100.00;96130.78;5084881;28;20401;-76
2022/12/10 03:29:05;;;;;;;238.82;70.72;;;0.90;99.90;;;-0.45;100.00;96129.19;5091485;28;20421;-76
2022/12/10 03:31:35;;;;;;;194.30;63.78;;;0.90;99.90;;;-0.46;100.00;96109.44;5087690;28;20407;-76
2022/12/10 03:34:03;;;;;;;216.40;66.13;;;0.90;99.90;;;-0.46;100.00;96114.63;5077403;28;20419;-76
2022/12/10 03:36:30;;;;;;;199.68;63.33;;;0.90;99.90;;;-0.47;100.00;96118.25;5079453;28;20416;-76
2022/12/10 03:38:57;;;;;;;276.20;75.70;;;0.90;99.90;;;-0.47;100.00;96123.44;5079047;28;20822;-76
2022/12/10 03:41:23;;;;;;;208.27;66.47;;;0.90;99.90;;;-0.47;100.00;96120.84;5078340;28;20399;-76
2022/12/10 03:43:54;;;;;;;232.90;69.03;;;0.90;99.90;;;-0.48;100.00;96116.66;5078679;28;20398;-76
2022/12/10 03:46:21;;;;;;;196.40;62.77;;;0.90;99.90;;;-0.49;100.00;96124.66;5080389;28;20568;-76
2022/12/10 03:48:48;;;;;;;243.45;73.40;;;0.90;99.90;;;-0.47;100.00;96133.84;5077685;28;20461;-76
2022/12/10 03:51:14;;;;;;;216.77;71.60;;;0.90;99.90;;;-0.42;100.00;96139.19;5078435;28;20444;-76
2022/12/10 03:53:40;;;;;;;220.05;68.93;;;0.90;99.90;;;-0.43;100.00;96135.00;5079429;28;20408;-76
2022/12/10 03:56:07;;;;;;;206.95;64.57;;;0.90;99.90;;;-0.43;100.00;96142.78;5078744;28;20407;-77
2022/12/10 03:58:33;;;;;;;188.75;64.03;;;0.90;99.90;;;-0.44;100.00;96149.00;5078767;28;20440;-76
2022/12/10 04:00:59;;;;;;;201.77;65.03;;;0.90;99.90;;;-0.43;100.00;96160.19;5080318;28;20777;-76
2022/12/10 04:03:25;;;;;;;209.82;64.55;;;0.90;99.90;;;-0.44;100.00;96158.59;5077534;28;20423;-76
2022/12/10 04:05:52;;;;;;;222.00;67.20;;;0.90;99.90;;;-0.45;100.00;96160.38;5078911;28;20401;-76
2022/12/10 04:08:18;;;;;;;217.27;67.70;;;0.90;99.90;;;-0.44;100.00;96156.78;5080110;28;20473;-76
2022/12/10 04:10:44;;;;;;;229.00;66.95;;;0.90;99.90;;;-0.45;100.00;96157.00;5078034;28;20411;-77
2022/12/10 04:18:40;;;;;;;224.63;68.53;;;0.90;99.90;;;-0.47;100.00;96164.22;5080023;28;20385;-76
2022/12/10 04:26:51;;;;;;;210.93;65.75;;;0.90;99.90;;;-0.47;100.00;96172.03;5080012;28;20480;-76
2022/12/10 04:29:17;;;;;;;222.52;65.88;;;0.90;99.90;;;-0.47;100.00;96169.44;5104183;28;20410;-76
2022/12/10 04:31:43;;;;;;;215.73;66.83;;;0.90;99.90;;;-0.47;100.00;96166.81;5079257;28;20404;-76
2022/12/10 04:34:09;;;;;;;263.42;74.95;;;0.90;99.90;;;-0.46;100.00;96181.41;5082071;28;20715;-76
2022/12/10 04:36:37;;;;;;;203.00;66.82;;;0.90;99.90;;;-0.47;100.00;96185.03;5082137;28;20491;-77
2022/12/10 04:39:03;;;;;;;237.57;72.28;;;0.90;99.90;;;-0.47;100.00;96170.22;5081599;28;20486;-76
2022/12/10 04:41:29;;;;;;;263.77;73.88;;;0.90;99.90;;;-0.49;100.00;96174.81;5082642;28;20524;-76
2022/12/10 04:43:55;;;;;;;242.23;71.32;;;0.90;99.90;;;-0.49;100.00;96176.63;5082584;28;20853;-76
2022/12/10 04:46:21;;;;;;;203.55;66.40;;;0.90;99.90;;;-0.47;100.00;96174.63;5081481;28;20496;-76
2022/12/10 04:48:47;;;;;;;207.77;65.78;;;0.90;99.90;;;-0.48;100.00;96178.22;5082903;28;20402;-77
2022/12/10 04:51:13;;;;;;;229.50;68.40;;;0.90;99.90;;;-0.49;100.00;96176.63;5101932;22;20437;-72
2022/12/10 04:53:40;;;;;;;282.63;79.53;;;0.90;99.90;;;-0.50;100.00;96180.22;5091751;28;20531;-73
2022/12/10 04:56:07;;;;;;;242.38;72.85;;;0.90;99.90;;;-0.48;100.00;96179.03;5092541;28;20417;-74
2022/12/10 04:58:33;;;;;;;220.32;69.72;;;0.90;99.90;;;-0.49;100.00;96177.44;5092460;28;20406;-72
2022/12/10 05:01:02;;;;;;;214.13;67.80;;;0.90;99.90;;;-0.46;100.00;96178.81;5086620;28;20482;-72
2022/12/10 05:03:28;;;;;;;285.90;79.68;;;0.90;99.90;;;-0.49;100.00;96176.63;5081787;28;20406;-73
2022/12/10 05:05:54;;;;;;;288.60;79.50;;;0.90;99.90;;;-0.52;100.00;96177.84;5082955;28;20788;-73
2022/12/10 05:08:20;;;;;;;241.35;72.57;;;0.90;99.90;;;-0.52;100.00;96169.25;5081284;28;20412;-73
2022/12/10 05:10:47;;;;;;;251.00;72.28;;;0.80;99.90;;;-0.54;100.00;96172.06;5082628;28;20496;-73
2022/12/10 05:13:13;;;;;;;260.27;75.10;;;0.80;99.90;;;-0.54;100.00;96171.28;5081916;28;20437;-73
2022/12/10 05:15:39;;;;;;;219.67;69.57;;;0.80;99.90;;;-0.54;100.00;96176.47;5083920;28;20525;-73
2022/12/10 05:18:05;;;;;;;268.83;74.78;;;0.80;99.90;;;-0.54;100.00;96174.69;5081536;28;20433;-73
2022/12/10 05:20:31;;;;;;;266.13;77.25;;;0.80;99.90;;;-0.53;100.00;96173.69;5081620;28;20398;-73
2022/12/10 05:25:52;;;;;;;229.00;72.22;;;0.80;99.90;;;-0.54;100.00;96177.28;5080903;28;20432;-73
2022/12/10 05:28:20;;;;;;;249.68;74.47;;;0.80;99.90;;;-0.55;100.00;96180.88;5088895;28;20829;-73
2022/12/10 05:30:45;;;;;;;273.23;77.93;;;0.80;99.90;;;-0.54;100.00;96182.47;5085512;28;20906;-74
2022/12/10 05:33:11;;;;;;;252.50;77.20;;;0.80;99.90;;;-0.54;100.00;96177.28;5074750;28;20408;-74
2022/12/10 05:35:37;;;;;;;261.30;78.45;;;0.80;99.90;;;-0.53;100.00;96178.06;5077345;28;20404;-74
2022/12/10 05:38:05;;;;;;;280.10;81.47;;;0.80;99.90;;;-0.53;100.00;96191.06;5081187;28;20456;-73
2022/12/10 05:40:33;;;;;;;283.10;83.87;;;0.80;99.90;;;-0.55;100.00;96186.06;5079544;28;20414;-74
2022/12/10 05:42:59;;;;;;;250.75;74.05;;;0.80;99.90;;;-0.53;100.00;96191.06;5079377;28;20426;-73
2022/12/10 05:45:26;;;;;;;251.60;75.88;;;0.80;99.90;;;-0.54;100.00;96192.88;5082183;28;20450;-73
2022/12/10 05:47:52;;;;;;;252.35;76.10;;;0.80;99.90;;;-0.55;100.00;96185.28;5080952;28;20398;-74
2022/12/10 05:50:18;;;;;;;294.70;82.70;;;0.80;99.90;;;-0.55;100.00;96188.66;5082053;28;20410;-74
2022/12/10 05:52:44;;;;;;;239.82;76.20;;;0.80;99.90;;;-0.56;100.00;96189.69;5079847;28;20395;-74
2022/12/10 05:55:10;;;;;;;291.77;84.27;;;0.80;99.90;;;-0.56;100.00;96194.06;5096995;28;20516;-74
2022/12/10 05:57:36;;;;;;;252.70;76.80;;;0.80;99.90;;;-0.59;100.00;96194.47;5079506;28;20431;-74
2022/12/10 06:00:04;;;;;;;310.23;87.93;;;0.80;99.90;;;-0.60;100.00;96196.28;5086427;28;20402;-74
2022/12/10 06:02:32;;;;;;;243.13;76.32;;;0.80;99.90;;;-0.55;100.00;96195.66;5084926;28;20427;-74
2022/12/10 06:04:58;;;;;;;312.63;83.80;;;0.70;99.90;;;-0.64;100.00;96197.72;5078109;28;20445;-74
2022/12/10 06:07:24;;;;;;;258.60;80.05;;;0.70;99.90;;;-0.62;100.00;96206.13;5091442;28;20432;-74
2022/12/10 06:09:50;;;;;;;325.47;90.63;;;0.80;99.90;;;-0.64;100.00;96212.50;5091455;28;20489;-74
2022/12/10 06:12:16;;;;;;;261.13;80.85;;;0.70;99.90;;;-0.65;100.00;96213.50;5091355;28;20390;-74
2022/12/10 06:14:42;;;;;;;322.08;85.32;;;0.70;99.90;;;-0.66;100.00;96223.13;5090697;28;20402;-74
2022/12/10 06:17:08;;;;;;;336.40;92.22;;;0.70;99.90;;;-0.66;100.00;96230.09;5091358;28;20479;-74
2022/12/10 06:19:35;;;;;;;325.75;91.22;;;0.70;99.90;;;-0.69;100.00;96225.34;5091245;28;20887;-74
2022/12/10 06:22:01;;;;;;;254.15;78.15;;;0.70;99.90;;;-0.70;100.00;96227.16;5090892;28;20504;-74
2022/12/10 06:24:28;;;;;;;299.95;87.40;;;0.70;99.90;;;-0.68;100.00;96226.94;5090279;28;20440;-73
2022/12/10 06:26:54;;;;;;;257.08;80.10;;;0.70;99.90;;;-0.65;100.00;96229.09;5091175;28;20497;-75
2022/12/10 06:29:20;;;;;;;261.48;81.72;;;0.70;99.90;;;-0.62;100.00;96233.91;5089803;28;20488;-75
2022/12/10 06:31:46;;;;;;;317.10;88.90;;;0.70;99.90;;;-0.65;100.00;96222.13;5082205;28;20415;-76
2022/12/10 06:34:12;;;;;;;255.27;79.80;;;0.70;99.90;;;-0.66;100.00;96235.31;5086925;28;20442;-76
2022/12/10 06:36:39;;;;;;;253.73;77.13;;;0.70;99.90;;;-0.66;100.00;96233.50;5091110;28;20883;-76
2022/12/10 06:39:05;;;;;;;295.92;86.82;;;0.70;99.90;;;-0.65;100.00;96231.72;5090916;28;20771;-75
2022/12/10 06:41:31;;;;;;;251.10;78.40;;;0.70;99.90;;;-0.64;100.00;96235.91;5087204;28;20388;-74
2022/12/10 06:43:58;;;;;;;288.75;81.97;;;0.70;99.90;;;-0.64;100.00;96243.69;5079460;28;21129;-74
2022/12/10 06:46:26;;;;;;;256.27;75.70;;;0.70;99.90;;;-0.63;100.00;96253.88;5081140;28;20889;-76
2022/12/10 06:48:52;;;;;;;268.83;78.85;;;0.80;99.90;;;-0.62;100.00;96257.28;5090772;28;20423;-76
2022/12/10 06:51:18;;;;;;;328.92;87.28;;;0.80;99.90;;;-0.63;100.00;96251.28;5078545;28;20498;-76
2022/12/10 06:53:46;;;;;;;283.55;80.22;;;0.80;99.90;;;-0.63;100.00;96253.88;5069047;28;20400;-76
2022/12/10 06:56:15;;;;;;;252.88;77.63;;;0.80;99.90;;;-0.62;100.00;96257.28;5070149;28;20437;-76
2022/12/10 06:58:42;;;;;;;296.47;84.43;;;0.80;99.90;;;-0.64;100.00;96248.91;5070293;28;20490;-75
2022/12/10 07:01:10;;;;;;;272.33;80.60;;;0.70;99.90;;;-0.65;100.00;96245.50;5070003;28;20742;-78
2022/12/10 07:03:37;;;;;;;288.87;82.60;;;0.70;99.90;;;-0.65;100.00;96255.09;5069124;28;20594;-75
2022/12/10 07:06:04;;;;;;;281.58;80.20;;;0.70;99.90;;;-0.66;100.00;96249.09;5070268;28;20392;-75
2022/12/10 07:08:31;;;;;;;231.73;71.90;;;0.70;99.90;;;-0.62;100.00;96254.69;5070188;28;20494;-75
2022/12/10 07:10:58;;;;;;;294.38;82.88;;;0.70;99.90;;;-0.64;100.00;96251.50;5070952;28;20916;-76
2022/12/10 07:13:25;;;;;;;315.73;84.30;;;0.70;99.90;;;-0.63;100.00;96250.50;5087475;28;20394;-76
2022/12/10 07:15:50;;;;;;;292.05;89.07;;;0.70;99.90;;;-0.66;100.00;96251.69;5090213;28;20398;-75
2022/12/10 07:18:16;;;;;;;293.42;85.45;;;0.70;99.90;;;-0.70;100.00;96247.94;5084815;28;20448;-75
2022/12/10 07:20:42;;;;;;;249.77;79.05;;;0.70;99.90;;;-0.70;100.00;96249.72;5089592;28;20737;-75
2022/12/10 07:23:08;;;;;;;315.20;85.68;;;0.70;99.90;;;-0.71;100.00;96259.31;5089168;28;20911;-76
2022/12/10 07:25:34;;;;;;;264.13;79.13;;;0.70;99.90;;;-0.70;100.00;96266.13;5090276;28;20430;-76
2022/12/10 07:28:01;;;;;;;280.30;82.03;;;0.70;99.90;;;-0.69;100.00;96270.31;5090100;28;20776;-75
2022/12/10 07:30:27;;;;;;;303.45;81.13;;;0.70;99.90;;;-0.67;100.00;96275.28;5089944;28;20442;-74
2022/12/10 07:32:53;;;;;;;271.97;77.83;;;0.70;99.90;;;-0.66;100.00;96269.09;5089261;28;20440;-75
2022/12/10 07:35:19;;;;;;;281.25;82.03;;;0.70;99.90;;;-0.63;100.00;96273.88;5089969;28;20607;-75
2022/12/10 07:37:45;;;;;;;272.92;79.03;;;0.70;99.90;;;-0.63;100.00;96281.69;5081459;28;20451;-74
2022/12/10 07:40:11;;;;;;;263.50;79.97;;;0.70;99.90;;;-0.57;100.00;96286.03;5084888;28;20420;-76
2022/12/10 07:42:37;;;;;;;274.40;79.75;;;0.80;99.90;;;-0.59;100.00;96286.25;5089796;28;20412;-75
2022/12/10 07:45:06;;;;;;;274.52;77.07;;;0.80;99.90;;;-0.57;100.00;96294.63;5081694;28;20500;-74
2022/12/10 07:47:34;;;;;;;273.13;77.28;;;0.80;99.90;;;-0.57;100.00;96283.44;5080450;28;20402;-74
2022/12/10 07:50:00;;;;;;;236.45;71.93;;;0.80;99.90;;;-0.56;100.00;96290.22;5078792;28;20796;-74
2022/12/10 07:52:26;;;;;;;232.02;73.82;;;0.80;99.90;;;-0.53;100.00;96292.44;5084086;28;20515;-73
2022/12/10 07:54:52;;;;;;;242.33;72.87;;;0.80;99.90;;;-0.52;100.00;96287.00;5084388;28;20772;-74
2022/12/10 07:57:18;;;;;;;274.65;80.15;;;0.90;99.90;;;-0.49;100.00;96294.38;5078872;28;20399;-75
2022/12/10 07:59:44;;;;;;;298.27;85.53;;;0.90;99.90;;;-0.45;100.00;96292.16;5079204;28;20764;-74
2022/12/10 08:02:11;;;;;;;286.77;81.32;;;0.90;99.90;;;-0.45;100.00;96294.75;5074597;28;20493;-75
2022/12/10 08:04:37;;;;;;;295.17;83.55;;;0.90;99.90;;;-0.47;100.00;96300.19;5077832;28;20847;-76
2022/12/10 08:07:03;;;;;;;290.00;85.00;;;0.90;99.90;;;-0.43;100.00;96303.94;5083843;28;20422;-74
2022/12/10 08:09:29;;;;;;;257.15;77.70;;;0.90;99.90;;;-0.43;100.00;96297.97;5082858;28;20900;-75
2022/12/10 08:11:55;;;;;;;283.17;83.03;;;0.90;99.90;;;-0.43;100.00;96298.75;5079222;28;20400;-74
2022/12/10 08:14:21;;;;;;;281.80;79.72;;;0.90;99.90;;;-0.41;100.00;96304.56;5082486;28;20404;-75
2022/12/10 08:16:47;;;;;;;294.37;81.13;;;0.90;99.90;;;-0.38;100.00;96298.16;5082250;28;20405;-75
2022/12/10 08:19:14;;;;;;;241.73;73.13;;;1.00;99.90;;;-0.33;100.00;96306.09;5081205;28;20467;-75
2022/12/10 08:21:40;;;;;;;265.65;82.10;;;1.00;99.90;;;-0.31;100.00;96305.91;5083261;28;20398;-75
2022/12/10 08:24:06;;;;;;;257.35;78.30;;;1.00;99.90;;;-0.27;100.00;96307.06;5082324;28;20432;-74
2022/12/10 08:26:33;;;;;;;278.55;81.45;;;1.10;99.90;;;-0.25;100.00;96305.06;5082740;28;20857;-75
2022/12/10 08:29:00;;;;;;;290.15;82.20;;;1.10;99.90;;;-0.25;100.00;96300.66;5081903;28;20903;-75
2022/12/10 08:31:27;;;;;;;245.93;75.00;;;1.10;99.90;;;-0.24;100.00;96299.66;5083519;28;20441;-74
2022/12/10 08:33:54;;;;;;;277.30;79.38;;;1.10;99.90;;;-0.22;100.00;96304.63;5081617;28;20461;-74
2022/12/10 08:36:22;;;;;;;241.07;73.30;;;1.10;99.90;;;-0.22;100.00;96310.63;5081981;28;20425;-75
2022/12/10 08:38:48;;;;;;;251.38;77.55;;;1.10;99.90;;;-0.14;100.00;96309.56;5072528;28;20443;-75
2022/12/10 08:41:16;;;;;;;256.40;78.53;;;1.20;99.90;;;-0.10;100.00;96306.38;5082272;28;20414;-75
2022/12/10 08:43:42;;;;;;;265.58;80.70;;;1.20;99.90;;;-0.11;100.00;96311.78;5087162;28;20425;-76
2022/12/10 08:46:08;;;;;;;295.65;82.90;;;1.20;99.90;;;-0.11;100.00;96317.78;5086195;28;20905;-74
2022/12/10 08:48:36;;;;;;;247.13;74.45;;;1.20;99.90;;;-0.13;100.00;96316.38;5091947;28;20402;-75
2022/12/10 08:51:02;;;;;;;275.02;78.38;;;1.20;99.90;;;-0.12;100.00;96326.56;5096832;28;20409;-75
2022/12/10 08:53:29;;;;;;;260.43;82.00;;;1.20;99.90;;;-0.14;100.00;96322.59;5093435;28;20971;-76
2022/12/10 08:55:55;;;;;;;218.33;72.13;;;1.20;99.90;;;-0.19;100.00;96328.41;5092866;28;20397;-75
2022/12/10 08:58:21;;;;;;;230.65;73.45;;;1.10;99.90;;;-0.15;100.00;96334.78;5093227;28;20434;-76
2022/12/10 09:00:49;;;;;;;237.15;72.32;;;1.20;99.90;;;-0.08;100.00;96337.38;5096028;28;20414;-75
2022/12/10 09:03:15;;;;;;;201.68;66.45;;;1.20;99.90;;;-0.05;100.00;96335.13;5083759;28;20969;-75
2022/12/10 09:05:42;;;;;;;217.73;69.63;;;1.30;99.90;;;0.00;100.00;96342.31;5079663;28;20402;-75
2022/12/10 09:08:08;;;;;;;224.07;71.72;;;1.30;99.90;;;0.00;100.00;96342.31;5087799;28;20393;-75
2022/12/10 09:10:36;;;;;;;203.68;64.65;;;1.30;99.90;;;0.00;100.00;96343.09;5092171;28;20401;-75
2022/12/10 09:13:02;;;;;;;202.90;65.03;;;1.30;99.90;;;0.03;100.00;96344.50;5091453;28;20877;-75
2022/12/10 09:15:28;;;;;;;178.27;61.90;;;1.40;99.90;;;0.06;100.00;96338.09;5092222;28;20406;-75
2022/12/10 09:17:54;;;;;;;201.48;65.45;;;1.40;99.90;;;0.09;100.00;96348.06;5090202;28;20835;-76
2022/12/10 09:20:20;;;;;;;249.70;76.70;;;1.40;99.90;;;0.05;100.00;96352.88;5092902;28;20438;-76
2022/12/10 09:22:46;;;;;;;192.97;63.93;;;1.40;99.90;;;0.06;100.00;96354.50;5082074;28;20706;-76
2022/12/10 09:25:15;;;;;;;224.40;67.78;;;1.40;99.90;;;0.08;100.00;96349.84;5083648;28;20581;-75
2022/12/10 09:27:42;;;;;;;206.32;64.68;;;1.40;99.90;;;0.10;100.00;96355.66;5085690;28;20449;-76
2022/12/10 09:30:11;;;;;;;201.75;63.42;;;1.40;99.90;;;0.13;100.00;96364.84;5077666;28;20419;-75
2022/12/10 09:32:37;;;;;;;195.73;67.87;;;1.40;99.90;;;0.10;100.00;96367.84;5081878;28;20885;-75
2022/12/10 09:35:04;;;;;;;180.13;61.33;;;1.40;99.90;;;0.09;100.00;96359.25;5084422;28;20413;-75
2022/12/10 09:37:29;;;;;;;186.43;62.55;;;1.40;99.90;;;0.10;100.00;96373.88;5082003;28;20400;-75
2022/12/10 09:39:55;;;;;;;191.88;61.83;;;1.40;99.90;;;0.12;100.00;96366.66;5078881;28;20500;-75
2022/12/10 09:42:45;;;;;;;195.77;63.90;;;1.40;99.90;;;0.14;100.00;96361.25;5091615;28;20421;-75
2022/12/10 09:45:19;;;;;;;210.63;65.22;;;1.50;99.90;;;0.15;100.00;96360.25;5098836;28;20966;-75
2022/12/10 09:47:59;;;;;;;196.25;64.45;;;1.50;99.90;;;0.19;100.00;96364.00;5091931;28;20437;-75
2022/12/10 09:50:31;;;;;;;199.45;67.07;;;1.50;99.90;;;0.23;100.00;96370.38;5090208;28;20496;-73
2022/12/10 09:52:59;;;;;;;185.57;62.75;;;1.50;99.90;;;0.21;100.00;96362.00;5090914;28;20390;-75
2022/12/10 09:55:34;;;;;;;176.00;62.17;;;1.50;99.90;;;0.21;100.00;96365.41;5091538;28;20397;-76
2022/12/10 09:58:04;;;;;;;176.52;61.42;;;1.50;99.90;;;0.24;100.00;96364.16;5091497;28;20444;-75
2022/12/10 10:00:35;;;;;;;198.73;67.85;;;1.50;99.90;;;0.24;100.00;96364.16;5084606;28;20466;-75
2022/12/10 10:03:03;;;;;;;184.63;64.80;;;1.60;99.90;;;0.23;100.00;96367.75;5083521;28;20449;-73
2022/12/10 10:05:33;;;;;;;167.05;59.15;;;1.50;99.90;;;0.23;100.00;96360.75;5077762;28;20409;-73
2022/12/10 10:08:03;;;;;;;184.95;64.45;;;1.60;99.90;;;0.22;100.00;96356.59;5081924;28;20411;-75
2022/12/10 10:10:32;;;;;;;157.07;62.17;;;1.50;99.90;;;0.21;100.00;96375.00;5079886;28;20462;-76
2022/12/10 10:13:15;;;;;;;165.40;58.13;;;1.50;99.90;;;0.21;100.00;96360.19;5082326;28;20441;-75
2022/12/10 10:15:44;;;;;;;147.50;62.20;;;1.50;99.90;;;0.17;100.00;96361.59;5084123;28;20405;-75
2022/12/10 10:18:21;;;;;;;154.45;57.00;;;1.50;99.90;;;0.23;100.00;96363.34;5090994;28;20501;-75